sensor_id;sensor_type;location;lat;lon;timestamp;pressure;altitude;pressure_sealevel;temperature;humidity
56272;BME280;42177;48.914;18.160;2022-10-26T00:04:46;990.1;;;12;100
56272;BME280;42177;48.914;18.160;2022-10-26T00:09:46;990.4;;;11.8;100
56272;BME280;42177;48.914;18.160;2022-10-26T00:14:46;990.4;;;11.8;100
56272;BME280;42177;48.914;18.160;2022-10-26T00:19:46;990.3;;;11.9;100
56272;BME280;42177;48.914;18.160;2022-10-26T00:24:46;990.3;;;11.9;100
56272;BME280;42177;48.914;18.160;2022-10-26T00:29:46;990.3;;;11.8;100
56272;BME280;42177;48.914;18.160;2022-10-26T00:34:46;990.3;;;11.8;100
56272;BME280;42177;48.914;18.160;2022-10-26T00:39:46;990.2;;;11.7;100
56272;BME280;42177;48.914;18.160;2022-10-26T00:45:03;990.2;;;11.7;100
56272;BME280;42177;48.914;18.160;2022-10-26T00:49:46;990.2;;;11.6;100
56272;BME280;42177;48.914;18.160;2022-10-26T00:54:46;990.2;;;11.6;100
56272;BME280;42177;48.914;18.160;2022-10-26T00:59:46;990.2;;;11.6;100
56272;BME280;42177;48.914;18.160;2022-10-26T01:04:46;990.2;;;11.6;100
56272;BME280;42177;48.914;18.160;2022-10-26T01:09:46;990;;;11.5;100
56272;BME280;42177;48.914;18.160;2022-10-26T01:14:46;990;;;11.5;100
56272;BME280;42177;48.914;18.160;2022-10-26T01:19:52;990.1;;;11.4;100
56272;BME280;42177;48.914;18.160;2022-10-26T01:24:50;990.1;;;11.4;100
56272;BME280;42177;48.914;18.160;2022-10-26T01:29:50;990.2;;;11.4;100
56272;BME280;42177;48.914;18.160;2022-10-26T01:34:46;990.2;;;11.4;100
56272;BME280;42177;48.914;18.160;2022-10-26T01:39:46;990.2;;;11.7;100
56272;BME280;42177;48.914;18.160;2022-10-26T01:44:47;990.2;;;11.7;100
56272;BME280;42177;48.914;18.160;2022-10-26T01:49:47;990.1;;;11.9;100
56272;BME280;42177;48.914;18.160;2022-10-26T01:54:46;990.1;;;11.9;100
56272;BME280;42177;48.914;18.160;2022-10-26T01:59:50;990.1;;;11.7;100
56272;BME280;42177;48.914;18.160;2022-10-26T02:04:50;990.1;;;11.7;100
56272;BME280;42177;48.914;18.160;2022-10-26T02:09:50;990.1;;;11.6;100
56272;BME280;42177;48.914;18.160;2022-10-26T02:14:47;990.1;;;11.6;100
56272;BME280;42177;48.914;18.160;2022-10-26T02:19:46;990.1;;;11.8;100
56272;BME280;42177;48.914;18.160;2022-10-26T02:24:47;990.1;;;11.8;100
56272;BME280;42177;48.914;18.160;2022-10-26T02:29:46;990.1;;;11.6;100
56272;BME280;42177;48.914;18.160;2022-10-26T02:34:46;990.1;;;11.6;100
56272;BME280;42177;48.914;18.160;2022-10-26T02:39:46;990.2;;;11.5;100
56272;BME280;42177;48.914;18.160;2022-10-26T02:44:47;990.2;;;11.5;100
56272;BME280;42177;48.914;18.160;2022-10-26T02:49:46;990.3;;;11.1;100
56272;BME280;42177;48.914;18.160;2022-10-26T02:54:48;990.3;;;11.1;100
56272;BME280;42177;48.914;18.160;2022-10-26T02:59:46;990.3;;;10.8;100
56272;BME280;42177;48.914;18.160;2022-10-26T03:04:46;990.3;;;10.8;100
56272;BME280;42177;48.914;18.160;2022-10-26T03:09:46;990.4;;;10.9;100
56272;BME280;42177;48.914;18.160;2022-10-26T03:14:46;990.4;;;10.9;100
56272;BME280;42177;48.914;18.160;2022-10-26T03:19:46;990.4;;;10.7;100
56272;BME280;42177;48.914;18.160;2022-10-26T03:24:46;990.4;;;10.7;100
56272;BME280;42177;48.914;18.160;2022-10-26T03:29:46;990.4;;;10.9;100
56272;BME280;42177;48.914;18.160;2022-10-26T03:34:46;990.4;;;10.9;100
56272;BME280;42177;48.914;18.160;2022-10-26T03:39:46;990.5;;;10.9;100
56272;BME280;42177;48.914;18.160;2022-10-26T03:44:46;990.5;;;10.9;100
56272;BME280;42177;48.914;18.160;2022-10-26T03:49:46;990.4;;;11;100
56272;BME280;42177;48.914;18.160;2022-10-26T03:54:46;990.4;;;11;100
56272;BME280;42177;48.914;18.160;2022-10-26T03:59:46;990.4;;;11;100
56272;BME280;42177;48.914;18.160;2022-10-26T04:04:46;990.4;;;11;100
56272;BME280;42177;48.914;18.160;2022-10-26T04:09:46;990.4;;;11;100
56272;BME280;42177;48.914;18.160;2022-10-26T04:14:46;990.4;;;11;100
56272;BME280;42177;48.914;18.160;2022-10-26T04:19:46;990.4;;;11.4;100
56272;BME280;42177;48.914;18.160;2022-10-26T04:24:46;990.4;;;11.4;100
56272;BME280;42177;48.914;18.160;2022-10-26T04:29:46;990.5;;;11;100
56272;BME280;42177;48.914;18.160;2022-10-26T04:34:46;990.5;;;11;100
56272;BME280;42177;48.914;18.160;2022-10-26T04:39:46;990.4;;;11;100
56272;BME280;42177;48.914;18.160;2022-10-26T04:44:46;990.4;;;11;100
56272;BME280;42177;48.914;18.160;2022-10-26T04:49:46;990.4;;;11;100
56272;BME280;42177;48.914;18.160;2022-10-26T04:54:46;990.4;;;11;100
56272;BME280;42177;48.914;18.160;2022-10-26T04:59:46;990.4;;;11.4;100
56272;BME280;42177;48.914;18.160;2022-10-26T05:04:46;990.4;;;11.4;100
56272;BME280;42177;48.914;18.160;2022-10-26T05:09:46;990.4;;;11.5;100
56272;BME280;42177;48.914;18.160;2022-10-26T05:14:46;990.4;;;11.5;100
56272;BME280;42177;48.914;18.160;2022-10-26T05:19:46;990.5;;;11.2;100
56272;BME280;42177;48.914;18.160;2022-10-26T05:24:46;990.5;;;11.2;100
56272;BME280;42177;48.914;18.160;2022-10-26T05:29:46;990.4;;;11.4;100
56272;BME280;42177;48.914;18.160;2022-10-26T05:34:46;990.4;;;11.4;100
56272;BME280;42177;48.914;18.160;2022-10-26T05:39:46;990.5;;;11.3;100
56272;BME280;42177;48.914;18.160;2022-10-26T05:44:46;990.5;;;11.3;100
56272;BME280;42177;48.914;18.160;2022-10-26T05:49:46;990.6;;;11.7;100
56272;BME280;42177;48.914;18.160;2022-10-26T05:54:46;990.6;;;11.7;100
56272;BME280;42177;48.914;18.160;2022-10-26T05:59:46;990.6;;;11.4;100
56272;BME280;42177;48.914;18.160;2022-10-26T06:04:46;990.6;;;11.4;100
56272;BME280;42177;48.914;18.160;2022-10-26T06:09:47;990.7;;;11.3;100
56272;BME280;42177;48.914;18.160;2022-10-26T06:14:46;990.7;;;11.3;100
56272;BME280;42177;48.914;18.160;2022-10-26T06:19:50;990.8;;;11.3;100
56272;BME280;42177;48.914;18.160;2022-10-26T06:24:48;990.8;;;11.3;100
56272;BME280;42177;48.914;18.160;2022-10-26T06:29:48;990.9;;;11.5;100
56272;BME280;42177;48.914;18.160;2022-10-26T06:34:47;990.9;;;11.5;100
56272;BME280;42177;48.914;18.160;2022-10-26T06:39:46;991;;;11.6;100
56272;BME280;42177;48.914;18.160;2022-10-26T06:44:46;991;;;11.6;100
56272;BME280;42177;48.914;18.160;2022-10-26T06:49:53;991;;;11.9;100
56272;BME280;42177;48.914;18.160;2022-10-26T06:54:47;991;;;11.9;100
56272;BME280;42177;48.914;18.160;2022-10-26T06:59:47;991;;;12;100
56272;BME280;42177;48.914;18.160;2022-10-26T07:04:46;991;;;12;100
56272;BME280;42177;48.914;18.160;2022-10-26T07:09:46;991.1;;;12.1;100
56272;BME280;42177;48.914;18.160;2022-10-26T07:14:46;991.1;;;12.1;100
56272;BME280;42177;48.914;18.160;2022-10-26T07:19:46;991.1;;;12.3;100
56272;BME280;42177;48.914;18.160;2022-10-26T07:24:46;991.1;;;12.3;100
56272;BME280;42177;48.914;18.160;2022-10-26T07:29:46;991.2;;;12.3;100
56272;BME280;42177;48.914;18.160;2022-10-26T07:34:46;991.2;;;12.3;100
56272;BME280;42177;48.914;18.160;2022-10-26T07:39:46;991.2;;;11.9;100
56272;BME280;42177;48.914;18.160;2022-10-26T07:44:46;991.2;;;11.9;100
56272;BME280;42177;48.914;18.160;2022-10-26T07:49:46;991.2;;;11.7;100
56272;BME280;42177;48.914;18.160;2022-10-26T07:54:46;991.2;;;11.7;100
56272;BME280;42177;48.914;18.160;2022-10-26T07:59:46;991.1;;;11.7;100
56272;BME280;42177;48.914;18.160;2022-10-26T08:04:46;991.1;;;11.7;100
56272;BME280;42177;48.914;18.160;2022-10-26T08:09:46;991.1;;;12;100
56272;BME280;42177;48.914;18.160;2022-10-26T08:14:46;991.1;;;12;100
56272;BME280;42177;48.914;18.160;2022-10-26T08:19:46;991.2;;;11.9;100
56272;BME280;42177;48.914;18.160;2022-10-26T08:24:46;991.2;;;11.9;100
56272;BME280;42177;48.914;18.160;2022-10-26T08:29:46;991.2;;;12;100
56272;BME280;42177;48.914;18.160;2022-10-26T08:34:46;991.2;;;12;100
56272;BME280;42177;48.914;18.160;2022-10-26T08:39:46;991.3;;;12;100
56272;BME280;42177;48.914;18.160;2022-10-26T08:44:46;991.3;;;12;100
56272;BME280;42177;48.914;18.160;2022-10-26T08:49:48;991.3;;;11.9;100
56272;BME280;42177;48.914;18.160;2022-10-26T08:54:47;991.3;;;11.9;100
56272;BME280;42177;48.914;18.160;2022-10-26T08:59:47;991.3;;;12.2;100
56272;BME280;42177;48.914;18.160;2022-10-26T09:04:46;991.3;;;12.2;100
56272;BME280;42177;48.914;18.160;2022-10-26T09:09:49;991.2;;;12.5;100
56272;BME280;42177;48.914;18.160;2022-10-26T09:14:48;991.2;;;12.5;100
56272;BME280;42177;48.914;18.160;2022-10-26T09:19:50;991.2;;;12.3;100
56272;BME280;42177;48.914;18.160;2022-10-26T09:24:48;991.2;;;12.3;100
56272;BME280;42177;48.914;18.160;2022-10-26T09:29:46;991.4;;;12.5;100
56272;BME280;42177;48.914;18.160;2022-10-26T09:34:47;991.4;;;12.5;100
56272;BME280;42177;48.914;18.160;2022-10-26T09:39:48;991.5;;;12.9;100
56272;BME280;42177;48.914;18.160;2022-10-26T09:44:48;991.5;;;12.9;100
56272;BME280;42177;48.914;18.160;2022-10-26T09:49:48;991.4;;;12.9;100
56272;BME280;42177;48.914;18.160;2022-10-26T09:54:46;991.4;;;12.9;100
56272;BME280;42177;48.914;18.160;2022-10-26T09:59:46;991.4;;;13.1;100
56272;BME280;42177;48.914;18.160;2022-10-26T10:04:46;991.4;;;13.1;100
56272;BME280;42177;48.914;18.160;2022-10-26T10:09:50;991.4;;;13.8;100
56272;BME280;42177;48.914;18.160;2022-10-26T10:14:54;991.4;;;13.8;100
56272;BME280;42177;48.914;18.160;2022-10-26T10:19:46;991.4;;;13.9;100
56272;BME280;42177;48.914;18.160;2022-10-26T10:24:52;991.4;;;13.9;100
56272;BME280;42177;48.914;18.160;2022-10-26T10:29:47;991.4;;;14.3;100
56272;BME280;42177;48.914;18.160;2022-10-26T10:34:47;991.4;;;14.3;100
56272;BME280;42177;48.914;18.160;2022-10-26T10:39:46;991.4;;;14.7;100
56272;BME280;42177;48.914;18.160;2022-10-26T10:44:48;991.4;;;14.7;100
56272;BME280;42177;48.914;18.160;2022-10-26T10:49:49;991.2;;;15.4;98.1
56272;BME280;42177;48.914;18.160;2022-10-26T10:54:46;991.2;;;15.4;98.1
56272;BME280;42177;48.914;18.160;2022-10-26T10:59:49;991.2;;;15.3;97.9
56272;BME280;42177;48.914;18.160;2022-10-26T11:04:51;991.2;;;15.3;97.9
56272;BME280;42177;48.914;18.160;2022-10-26T11:09:46;991.1;;;15.9;95.9
56272;BME280;42177;48.914;18.160;2022-10-26T11:14:47;991.1;;;15.9;95.9
56272;BME280;42177;48.914;18.160;2022-10-26T11:19:47;991.1;;;15.9;96.2
56272;BME280;42177;48.914;18.160;2022-10-26T11:24:48;991.1;;;15.9;96.2
56272;BME280;42177;48.914;18.160;2022-10-26T11:29:49;991;;;16;95.2
56272;BME280;42177;48.914;18.160;2022-10-26T11:34:48;991;;;16;95.2
56272;BME280;42177;48.914;18.160;2022-10-26T11:39:50;991;;;16.4;93.1
56272;BME280;42177;48.914;18.160;2022-10-26T11:44:47;991;;;16.4;93.1
56272;BME280;42177;48.914;18.160;2022-10-26T11:49:46;991;;;16.4;93
56272;BME280;42177;48.914;18.160;2022-10-26T11:54:47;991;;;16.4;93
56272;BME280;42177;48.914;18.160;2022-10-26T11:59:47;991;;;16.8;92.7
56272;BME280;42177;48.914;18.160;2022-10-26T12:04:48;991;;;16.8;92.7
56272;BME280;42177;48.914;18.160;2022-10-26T12:09:46;991;;;16.8;91.7
56272;BME280;42177;48.914;18.160;2022-10-26T12:14:48;991;;;16.8;91.7
56272;BME280;42177;48.914;18.160;2022-10-26T12:19:47;991.1;;;17.4;88.8
56272;BME280;42177;48.914;18.160;2022-10-26T12:25:03;991.1;;;17.4;88.8
56272;BME280;42177;48.914;18.160;2022-10-26T12:29:46;991.1;;;18;85.6
56272;BME280;42177;48.914;18.160;2022-10-26T12:35:02;991.1;;;18;85.6
56272;BME280;42177;48.914;18.160;2022-10-26T12:39:46;991;;;17.6;87.5
56272;BME280;42177;48.914;18.160;2022-10-26T12:44:59;991;;;17.6;87.5
56272;BME280;42177;48.914;18.160;2022-10-26T12:50:17;991.1;;;17.5;89
56272;BME280;42177;48.914;18.160;2022-10-26T12:54:48;991.1;;;17.5;89
56272;BME280;42177;48.914;18.160;2022-10-26T12:59:46;990.9;;;17.2;91.8
56272;BME280;42177;48.914;18.160;2022-10-26T13:04:53;990.9;;;17.2;91.8
56272;BME280;42177;48.914;18.160;2022-10-26T13:09:49;990.8;;;16.8;94.7
56272;BME280;42177;48.914;18.160;2022-10-26T13:14:51;990.8;;;16.8;94.7
56272;BME280;42177;48.914;18.160;2022-10-26T13:19:47;990.9;;;17.3;92.2
56272;BME280;42177;48.914;18.160;2022-10-26T13:24:48;990.9;;;17.3;92.2
56272;BME280;42177;48.914;18.160;2022-10-26T13:30:52;991;;;17.2;94.4
56272;BME280;42177;48.914;18.160;2022-10-26T13:34:46;991;;;17.2;94.4
56272;BME280;42177;48.914;18.160;2022-10-26T13:39:46;991;;;17.2;95.1
56272;BME280;42177;48.914;18.160;2022-10-26T13:44:47;991;;;17.2;95.1
56272;BME280;42177;48.914;18.160;2022-10-26T13:49:46;991.2;;;17.4;93.3
56272;BME280;42177;48.914;18.160;2022-10-26T13:54:47;991.2;;;17.4;93.3
56272;BME280;42177;48.914;18.160;2022-10-26T13:59:46;991.2;;;17.7;90.8
56272;BME280;42177;48.914;18.160;2022-10-26T14:04:47;991.2;;;17.7;90.8
56272;BME280;42177;48.914;18.160;2022-10-26T14:09:48;991.3;;;17.5;90.9
56272;BME280;42177;48.914;18.160;2022-10-26T14:14:46;991.3;;;17.5;90.9
56272;BME280;42177;48.914;18.160;2022-10-26T14:19:46;991.3;;;17.2;94.3
56272;BME280;42177;48.914;18.160;2022-10-26T14:24:49;991.3;;;17.2;94.3
56272;BME280;42177;48.914;18.160;2022-10-26T14:29:49;991.3;;;17.7;95.1
56272;BME280;42177;48.914;18.160;2022-10-26T14:34:46;991.3;;;17.7;95.1
56272;BME280;42177;48.914;18.160;2022-10-26T14:39:46;991.4;;;17.6;93.8
56272;BME280;42177;48.914;18.160;2022-10-26T14:44:46;991.4;;;17.6;93.8
56272;BME280;42177;48.914;18.160;2022-10-26T14:49:46;991.5;;;17.3;93.6
56272;BME280;42177;48.914;18.160;2022-10-26T14:54:55;991.5;;;17.3;93.6
56272;BME280;42177;48.914;18.160;2022-10-26T14:59:58;991.5;;;17.3;93.5
56272;BME280;42177;48.914;18.160;2022-10-26T15:04:55;991.5;;;17.3;93.5
56272;BME280;42177;48.914;18.160;2022-10-26T15:09:46;991.6;;;17.2;95.2
56272;BME280;42177;48.914;18.160;2022-10-26T15:14:46;991.6;;;17.2;95.2
56272;BME280;42177;48.914;18.160;2022-10-26T15:19:46;991.6;;;17.3;94.2
56272;BME280;42177;48.914;18.160;2022-10-26T15:24:48;991.6;;;17.3;94.2
56272;BME280;42177;48.914;18.160;2022-10-26T15:29:47;991.7;;;17.4;93
56272;BME280;42177;48.914;18.160;2022-10-26T15:34:47;991.7;;;17.4;93
56272;BME280;42177;48.914;18.160;2022-10-26T15:39:46;991.6;;;17.2;93.6
56272;BME280;42177;48.914;18.160;2022-10-26T15:44:46;991.6;;;17.2;93.6
56272;BME280;42177;48.914;18.160;2022-10-26T15:49:46;991.7;;;16;100
56272;BME280;42177;48.914;18.160;2022-10-26T15:54:46;991.7;;;16;100
56272;BME280;42177;48.914;18.160;2022-10-26T15:59:46;991.9;;;15.8;100
56272;BME280;42177;48.914;18.160;2022-10-26T16:04:46;991.9;;;15.8;100
56272;BME280;42177;48.914;18.160;2022-10-26T16:09:46;991.9;;;15.3;100
56272;BME280;42177;48.914;18.160;2022-10-26T16:14:46;991.9;;;15.3;100
56272;BME280;42177;48.914;18.160;2022-10-26T16:19:46;992;;;15.3;100
56272;BME280;42177;48.914;18.160;2022-10-26T16:24:46;992;;;15.3;100
56272;BME280;42177;48.914;18.160;2022-10-26T16:29:46;992;;;15;100
56272;BME280;42177;48.914;18.160;2022-10-26T16:34:46;992;;;15;100
56272;BME280;42177;48.914;18.160;2022-10-26T16:39:46;992.2;;;14.9;100
56272;BME280;42177;48.914;18.160;2022-10-26T16:44:46;992.2;;;14.9;100
56272;BME280;42177;48.914;18.160;2022-10-26T16:49:46;992.2;;;15;100
56272;BME280;42177;48.914;18.160;2022-10-26T16:54:46;992.2;;;15;100
56272;BME280;42177;48.914;18.160;2022-10-26T16:59:46;992.3;;;14.8;100
56272;BME280;42177;48.914;18.160;2022-10-26T17:04:46;992.3;;;14.8;100
56272;BME280;42177;48.914;18.160;2022-10-26T17:09:46;992.5;;;14.6;100
56272;BME280;42177;48.914;18.160;2022-10-26T17:14:46;992.5;;;14.6;100
56272;BME280;42177;48.914;18.160;2022-10-26T17:19:46;992.6;;;14.1;100
56272;BME280;42177;48.914;18.160;2022-10-26T17:24:46;992.6;;;14.1;100
56272;BME280;42177;48.914;18.160;2022-10-26T17:29:46;992.7;;;14.2;100
56272;BME280;42177;48.914;18.160;2022-10-26T17:34:46;992.7;;;14.2;100
56272;BME280;42177;48.914;18.160;2022-10-26T17:39:46;992.8;;;14.3;100
56272;BME280;42177;48.914;18.160;2022-10-26T17:44:46;992.8;;;14.3;100
56272;BME280;42177;48.914;18.160;2022-10-26T17:49:46;992.8;;;14;100
56272;BME280;42177;48.914;18.160;2022-10-26T17:54:46;992.8;;;14;100
56272;BME280;42177;48.914;18.160;2022-10-26T17:59:46;992.9;;;14.1;100
56272;BME280;42177;48.914;18.160;2022-10-26T18:04:46;992.9;;;14.1;100
56272;BME280;42177;48.914;18.160;2022-10-26T18:09:46;993.1;;;13.9;100
56272;BME280;42177;48.914;18.160;2022-10-26T18:14:46;993.1;;;13.9;100
56272;BME280;42177;48.914;18.160;2022-10-26T18:19:46;993.1;;;13.9;100
56272;BME280;42177;48.914;18.160;2022-10-26T18:24:47;993.1;;;13.9;100
56272;BME280;42177;48.914;18.160;2022-10-26T18:29:46;993.2;;;13.9;100
56272;BME280;42177;48.914;18.160;2022-10-26T18:34:46;993.2;;;13.9;100
56272;BME280;42177;48.914;18.160;2022-10-26T18:39:46;993.1;;;14;100
56272;BME280;42177;48.914;18.160;2022-10-26T18:44:46;993.1;;;14;100
56272;BME280;42177;48.914;18.160;2022-10-26T18:49:46;993.2;;;14.4;100
56272;BME280;42177;48.914;18.160;2022-10-26T18:54:47;993.2;;;14.4;100
56272;BME280;42177;48.914;18.160;2022-10-26T18:59:46;993.2;;;13.7;100
56272;BME280;42177;48.914;18.160;2022-10-26T19:04:46;993.2;;;13.7;100
56272;BME280;42177;48.914;18.160;2022-10-26T19:09:46;993.3;;;13.9;100
56272;BME280;42177;48.914;18.160;2022-10-26T19:14:46;993.3;;;13.9;100
56272;BME280;42177;48.914;18.160;2022-10-26T19:19:46;993.5;;;14.1;100
56272;BME280;42177;48.914;18.160;2022-10-26T19:24:46;993.5;;;14.1;100
56272;BME280;42177;48.914;18.160;2022-10-26T19:29:46;993.6;;;14.1;100
56272;BME280;42177;48.914;18.160;2022-10-26T19:34:46;993.6;;;14.1;100
56272;BME280;42177;48.914;18.160;2022-10-26T19:39:46;993.7;;;14;100
56272;BME280;42177;48.914;18.160;2022-10-26T19:44:46;993.7;;;14;100
56272;BME280;42177;48.914;18.160;2022-10-26T19:49:46;993.8;;;13.7;100
56272;BME280;42177;48.914;18.160;2022-10-26T19:54:46;993.8;;;13.7;100
56272;BME280;42177;48.914;18.160;2022-10-26T19:59:46;994.1;;;14;100
56272;BME280;42177;48.914;18.160;2022-10-26T20:04:46;994.1;;;14;100
56272;BME280;42177;48.914;18.160;2022-10-26T20:09:46;994.1;;;14.3;100
56272;BME280;42177;48.914;18.160;2022-10-26T20:14:46;994.1;;;14.3;100
56272;BME280;42177;48.914;18.160;2022-10-26T20:19:46;994.2;;;13.8;100
56272;BME280;42177;48.914;18.160;2022-10-26T20:24:46;994.2;;;13.8;100
56272;BME280;42177;48.914;18.160;2022-10-26T20:29:46;994.2;;;14;100
56272;BME280;42177;48.914;18.160;2022-10-26T20:34:46;994.2;;;14;100
56272;BME280;42177;48.914;18.160;2022-10-26T20:39:46;994.3;;;13.6;100
56272;BME280;42177;48.914;18.160;2022-10-26T20:44:46;994.3;;;13.6;100
56272;BME280;42177;48.914;18.160;2022-10-26T20:49:46;994.4;;;13.4;100
56272;BME280;42177;48.914;18.160;2022-10-26T20:54:47;994.4;;;13.4;100
56272;BME280;42177;48.914;18.160;2022-10-26T20:59:47;994.4;;;13.4;100
56272;BME280;42177;48.914;18.160;2022-10-26T21:04:46;994.4;;;13.4;100
56272;BME280;42177;48.914;18.160;2022-10-26T21:09:46;994.6;;;13.3;100
56272;BME280;42177;48.914;18.160;2022-10-26T21:14:46;994.6;;;13.3;100
56272;BME280;42177;48.914;18.160;2022-10-26T21:19:46;994.6;;;13.3;100
56272;BME280;42177;48.914;18.160;2022-10-26T21:24:46;994.6;;;13.3;100
56272;BME280;42177;48.914;18.160;2022-10-26T21:29:46;994.5;;;12.9;100
56272;BME280;42177;48.914;18.160;2022-10-26T21:34:46;994.5;;;12.9;100
56272;BME280;42177;48.914;18.160;2022-10-26T21:39:46;994.5;;;13.3;100
56272;BME280;42177;48.914;18.160;2022-10-26T21:44:46;994.5;;;13.3;100
56272;BME280;42177;48.914;18.160;2022-10-26T21:49:46;994.6;;;13;100
56272;BME280;42177;48.914;18.160;2022-10-26T21:54:46;994.6;;;13;100
56272;BME280;42177;48.914;18.160;2022-10-26T21:59:46;994.6;;;13;100
56272;BME280;42177;48.914;18.160;2022-10-26T22:04:46;994.6;;;13;100
56272;BME280;42177;48.914;18.160;2022-10-26T22:09:46;994.7;;;12.8;100
56272;BME280;42177;48.914;18.160;2022-10-26T22:14:46;994.7;;;12.8;100
56272;BME280;42177;48.914;18.160;2022-10-26T22:19:46;994.8;;;12.7;100
56272;BME280;42177;48.914;18.160;2022-10-26T22:24:46;994.8;;;12.7;100
56272;BME280;42177;48.914;18.160;2022-10-26T22:29:46;994.7;;;12.7;100
56272;BME280;42177;48.914;18.160;2022-10-26T22:34:46;994.7;;;12.7;100
56272;BME280;42177;48.914;18.160;2022-10-26T22:39:46;994.7;;;13;100
56272;BME280;42177;48.914;18.160;2022-10-26T22:44:46;994.7;;;13;100
56272;BME280;42177;48.914;18.160;2022-10-26T22:49:46;994.7;;;13;100
56272;BME280;42177;48.914;18.160;2022-10-26T22:54:46;994.7;;;13;100
56272;BME280;42177;48.914;18.160;2022-10-26T22:59:46;994.8;;;13;100
56272;BME280;42177;48.914;18.160;2022-10-26T23:04:46;994.8;;;13;100
56272;BME280;42177;48.914;18.160;2022-10-26T23:09:46;994.9;;;12.9;100
56272;BME280;42177;48.914;18.160;2022-10-26T23:14:46;994.9;;;12.9;100
56272;BME280;42177;48.914;18.160;2022-10-26T23:19:46;994.9;;;13.2;100
56272;BME280;42177;48.914;18.160;2022-10-26T23:24:46;994.9;;;13.2;100
56272;BME280;42177;48.914;18.160;2022-10-26T23:29:46;994.9;;;13.3;100
56272;BME280;42177;48.914;18.160;2022-10-26T23:34:46;994.9;;;13.3;100
56272;BME280;42177;48.914;18.160;2022-10-26T23:39:46;994.9;;;13.2;100
56272;BME280;42177;48.914;18.160;2022-10-26T23:44:47;994.9;;;13.2;100
56272;BME280;42177;48.914;18.160;2022-10-26T23:49:46;995.1;;;13.2;100
56272;BME280;42177;48.914;18.160;2022-10-26T23:54:46;995.1;;;13.2;100
56272;BME280;42177;48.914;18.160;2022-10-26T23:59:46;995;;;13.3;100
